sensor_id;sensor_type;location;lat;lon;timestamp;pressure;altitude;pressure_sealevel;temperature;humidity
5356;BME280;70449;52.486;13.386;2023-06-26T00:01:42;100947.16;;;24.84;100.00
5356;BME280;70449;52.486;13.386;2023-06-26T00:04:09;100937.44;;;24.74;100.00
5356;BME280;70449;52.486;13.386;2023-06-26T00:06:40;100941.88;;;25.16;100.00
5356;BME280;70449;52.486;13.386;2023-06-26T00:09:08;100934.75;;;25.33;100.00
5356;BME280;70449;52.486;13.386;2023-06-26T00:11:35;100942.66;;;25.17;100.00
5356;BME280;70449;52.486;13.386;2023-06-26T00:14:04;100936.47;;;25.00;100.00
5356;BME280;70449;52.486;13.386;2023-06-26T00:16:32;100931.28;;;24.99;100.00
5356;BME280;70449;52.486;13.386;2023-06-26T00:18:59;100935.91;;;25.25;100.00
5356;BME280;70449;52.486;13.386;2023-06-26T00:21:26;100936.03;;;24.95;100.00
5356;BME280;70449;52.486;13.386;2023-06-26T00:23:54;100930.50;;;25.02;100.00
5356;BME280;70449;52.486;13.386;2023-06-26T00:26:21;100930.53;;;25.05;100.00
5356;BME280;70449;52.486;13.386;2023-06-26T00:28:49;100931.88;;;25.19;100.00
5356;BME280;70449;52.486;13.386;2023-06-26T00:31:18;100931.44;;;25.17;100.00
5356;BME280;70449;52.486;13.386;2023-06-26T00:33:46;100928.78;;;25.38;100.00
5356;BME280;70449;52.486;13.386;2023-06-26T00:36:13;100933.25;;;25.43;100.00
5356;BME280;70449;52.486;13.386;2023-06-26T00:38:40;100929.94;;;24.85;100.00
5356;BME280;70449;52.486;13.386;2023-06-26T00:41:09;100931.63;;;24.53;100.00
5356;BME280;70449;52.486;13.386;2023-06-26T00:43:38;100930.84;;;24.52;100.00
5356;BME280;70449;52.486;13.386;2023-06-26T00:46:10;100918.84;;;25.00;100.00
5356;BME280;70449;52.486;13.386;2023-06-26T00:48:43;100919.75;;;24.66;100.00
5356;BME280;70449;52.486;13.386;2023-06-26T00:51:10;100934.38;;;24.86;100.00
5356;BME280;70449;52.486;13.386;2023-06-26T00:53:38;100924.03;;;24.98;100.00
5356;BME280;70449;52.486;13.386;2023-06-26T00:56:06;100918.97;;;24.66;100.00
5356;BME280;70449;52.486;13.386;2023-06-26T00:58:33;100923.38;;;24.67;100.00
5356;BME280;70449;52.486;13.386;2023-06-26T01:01:00;100922.38;;;24.89;100.00
5356;BME280;70449;52.486;13.386;2023-06-26T01:03:28;100917.56;;;24.86;100.00
5356;BME280;70449;52.486;13.386;2023-06-26T01:06:01;100909.41;;;24.74;100.00
5356;BME280;70449;52.486;13.386;2023-06-26T01:08:29;100907.16;;;24.91;100.00
5356;BME280;70449;52.486;13.386;2023-06-26T01:10:57;100907.97;;;24.95;100.00
5356;BME280;70449;52.486;13.386;2023-06-26T01:13:26;100905.34;;;24.68;100.00
5356;BME280;70449;52.486;13.386;2023-06-26T01:15:53;100909.38;;;24.71;100.00
5356;BME280;70449;52.486;13.386;2023-06-26T01:18:22;100902.66;;;24.41;100.00
5356;BME280;70449;52.486;13.386;2023-06-26T01:20:50;100904.66;;;24.41;100.00
5356;BME280;70449;52.486;13.386;2023-06-26T01:23:22;100901.63;;;24.19;100.00
5356;BME280;70449;52.486;13.386;2023-06-26T01:26:11;100904.91;;;24.25;100.00
5356;BME280;70449;52.486;13.386;2023-06-26T01:28:43;100907.03;;;24.02;100.00
5356;BME280;70449;52.486;13.386;2023-06-26T01:31:11;100904.31;;;24.42;100.00
5356;BME280;70449;52.486;13.386;2023-06-26T01:33:39;100893.63;;;24.55;100.00
5356;BME280;70449;52.486;13.386;2023-06-26T01:36:07;100894.75;;;24.47;100.00
5356;BME280;70449;52.486;13.386;2023-06-26T01:38:35;100894.88;;;24.24;100.00
5356;BME280;70449;52.486;13.386;2023-06-26T01:41:03;100893.03;;;24.02;100.00
5356;BME280;70449;52.486;13.386;2023-06-26T01:43:43;100893.28;;;24.60;100.00
5356;BME280;70449;52.486;13.386;2023-06-26T01:46:21;100886.63;;;24.79;100.00
5356;BME280;70449;52.486;13.386;2023-06-26T01:48:59;100877.00;;;24.39;100.00
5356;BME280;70449;52.486;13.386;2023-06-26T01:51:36;100881.22;;;24.19;100.00
5356;BME280;70449;52.486;13.386;2023-06-26T01:54:08;100876.19;;;24.35;100.00
5356;BME280;70449;52.486;13.386;2023-06-26T01:56:39;100881.88;;;24.05;100.00
5356;BME280;70449;52.486;13.386;2023-06-26T01:59:09;100881.72;;;24.28;100.00
5356;BME280;70449;52.486;13.386;2023-06-26T02:01:37;100884.63;;;24.02;100.00
5356;BME280;70449;52.486;13.386;2023-06-26T02:04:04;100892.09;;;24.28;100.00
5356;BME280;70449;52.486;13.386;2023-06-26T02:06:31;100876.66;;;24.82;100.00
5356;BME280;70449;52.486;13.386;2023-06-26T02:08:58;100873.28;;;24.65;100.00
5356;BME280;70449;52.486;13.386;2023-06-26T02:11:26;100880.78;;;24.17;100.00
5356;BME280;70449;52.486;13.386;2023-06-26T02:13:53;100878.16;;;24.31;100.00
5356;BME280;70449;52.486;13.386;2023-06-26T02:16:21;100884.75;;;24.16;100.00
5356;BME280;70449;52.486;13.386;2023-06-26T02:18:49;100883.34;;;24.33;100.00
5356;BME280;70449;52.486;13.386;2023-06-26T02:21:16;100873.38;;;24.35;100.00
5356;BME280;70449;52.486;13.386;2023-06-26T02:23:43;100874.97;;;24.36;100.00
5356;BME280;70449;52.486;13.386;2023-06-26T02:26:10;100873.13;;;24.48;100.00
5356;BME280;70449;52.486;13.386;2023-06-26T02:28:38;100879.91;;;24.87;100.00
5356;BME280;70449;52.486;13.386;2023-06-26T02:31:05;100873.97;;;24.52;100.00
5356;BME280;70449;52.486;13.386;2023-06-26T02:33:33;100875.94;;;24.48;100.00
5356;BME280;70449;52.486;13.386;2023-06-26T02:36:01;100876.47;;;23.89;100.00
5356;BME280;70449;52.486;13.386;2023-06-26T02:38:28;100872.06;;;23.88;100.00
5356;BME280;70449;52.486;13.386;2023-06-26T02:40:55;100869.75;;;24.31;100.00
5356;BME280;70449;52.486;13.386;2023-06-26T02:43:22;100869.44;;;24.03;100.00
5356;BME280;70449;52.486;13.386;2023-06-26T02:45:50;100871.19;;;24.18;100.00
5356;BME280;70449;52.486;13.386;2023-06-26T02:48:17;100875.03;;;24.03;100.00
5356;BME280;70449;52.486;13.386;2023-06-26T02:50:45;100870.63;;;24.02;100.00
5356;BME280;70449;52.486;13.386;2023-06-26T02:53:12;100862.38;;;23.82;100.00
5356;BME280;70449;52.486;13.386;2023-06-26T02:55:40;100856.72;;;23.48;100.00
5356;BME280;70449;52.486;13.386;2023-06-26T02:58:07;100866.00;;;23.26;100.00
5356;BME280;70449;52.486;13.386;2023-06-26T03:00:34;100863.06;;;23.45;100.00
5356;BME280;70449;52.486;13.386;2023-06-26T03:03:07;100857.66;;;23.60;100.00
5356;BME280;70449;52.486;13.386;2023-06-26T03:05:34;100852.94;;;23.64;100.00
5356;BME280;70449;52.486;13.386;2023-06-26T03:08:02;100847.19;;;23.53;100.00
5356;BME280;70449;52.486;13.386;2023-06-26T03:10:30;100850.34;;;23.51;100.00
5356;BME280;70449;52.486;13.386;2023-06-26T03:12:57;100852.78;;;23.83;100.00
5356;BME280;70449;52.486;13.386;2023-06-26T03:15:24;100845.84;;;23.70;100.00
5356;BME280;70449;52.486;13.386;2023-06-26T03:17:55;100846.47;;;23.60;100.00
5356;BME280;70449;52.486;13.386;2023-06-26T03:20:22;100847.91;;;23.76;100.00
5356;BME280;70449;52.486;13.386;2023-06-26T03:22:49;100851.78;;;23.98;100.00
5356;BME280;70449;52.486;13.386;2023-06-26T03:25:19;100847.88;;;23.73;100.00
5356;BME280;70449;52.486;13.386;2023-06-26T03:27:46;100839.88;;;23.45;100.00
5356;BME280;70449;52.486;13.386;2023-06-26T03:30:14;100840.25;;;23.70;100.00
5356;BME280;70449;52.486;13.386;2023-06-26T03:32:41;100842.88;;;23.89;100.00
5356;BME280;70449;52.486;13.386;2023-06-26T03:35:09;100835.53;;;23.77;100.00
5356;BME280;70449;52.486;13.386;2023-06-26T03:37:36;100842.06;;;23.59;100.00
5356;BME280;70449;52.486;13.386;2023-06-26T03:40:04;100840.78;;;23.52;100.00
5356;BME280;70449;52.486;13.386;2023-06-26T03:42:32;100839.41;;;23.69;100.00
5356;BME280;70449;52.486;13.386;2023-06-26T03:45:00;100826.69;;;23.45;100.00
5356;BME280;70449;52.486;13.386;2023-06-26T03:47:27;100831.19;;;23.53;100.00
5356;BME280;70449;52.486;13.386;2023-06-26T03:49:54;100828.06;;;23.59;100.00
5356;BME280;70449;52.486;13.386;2023-06-26T03:52:21;100831.06;;;24.07;100.00
5356;BME280;70449;52.486;13.386;2023-06-26T03:54:48;100831.31;;;24.28;100.00
5356;BME280;70449;52.486;13.386;2023-06-26T03:57:15;100826.13;;;23.93;100.00
5356;BME280;70449;52.486;13.386;2023-06-26T03:59:44;100825.22;;;23.85;100.00
5356;BME280;70449;52.486;13.386;2023-06-26T04:02:11;100834.06;;;23.87;100.00
5356;BME280;70449;52.486;13.386;2023-06-26T04:04:38;100837.25;;;23.89;100.00
5356;BME280;70449;52.486;13.386;2023-06-26T04:07:05;100835.41;;;24.41;100.00
5356;BME280;70449;52.486;13.386;2023-06-26T04:09:32;100831.06;;;24.44;100.00
5356;BME280;70449;52.486;13.386;2023-06-26T04:12:00;100829.81;;;24.41;100.00
5356;BME280;70449;52.486;13.386;2023-06-26T04:14:27;100829.22;;;24.62;100.00
5356;BME280;70449;52.486;13.386;2023-06-26T04:16:55;100824.50;;;24.70;100.00
5356;BME280;70449;52.486;13.386;2023-06-26T04:19:23;100829.16;;;24.52;100.00
5356;BME280;70449;52.486;13.386;2023-06-26T04:21:50;100821.38;;;24.82;100.00
5356;BME280;70449;52.486;13.386;2023-06-26T04:24:17;100823.69;;;24.29;100.00
5356;BME280;70449;52.486;13.386;2023-06-26T04:26:45;100827.28;;;24.26;100.00
5356;BME280;70449;52.486;13.386;2023-06-26T04:29:12;100826.75;;;24.54;100.00
5356;BME280;70449;52.486;13.386;2023-06-26T04:31:39;100828.78;;;24.57;100.00
5356;BME280;70449;52.486;13.386;2023-06-26T04:34:08;100819.66;;;24.67;100.00
5356;BME280;70449;52.486;13.386;2023-06-26T04:36:35;100816.03;;;24.22;100.00
5356;BME280;70449;52.486;13.386;2023-06-26T04:39:05;100823.06;;;24.42;100.00
5356;BME280;70449;52.486;13.386;2023-06-26T04:41:32;100823.09;;;24.09;100.00
5356;BME280;70449;52.486;13.386;2023-06-26T04:43:59;100824.06;;;24.27;100.00
5356;BME280;70449;52.486;13.386;2023-06-26T04:46:26;100820.31;;;24.50;100.00
5356;BME280;70449;52.486;13.386;2023-06-26T04:48:57;100819.78;;;23.99;100.00
5356;BME280;70449;52.486;13.386;2023-06-26T04:51:26;100814.75;;;24.57;100.00
5356;BME280;70449;52.486;13.386;2023-06-26T04:53:54;100808.16;;;24.35;100.00
5356;BME280;70449;52.486;13.386;2023-06-26T04:56:23;100809.72;;;24.77;100.00
5356;BME280;70449;52.486;13.386;2023-06-26T04:58:51;100817.56;;;25.08;100.00
5356;BME280;70449;52.486;13.386;2023-06-26T05:01:18;100812.13;;;24.75;100.00
5356;BME280;70449;52.486;13.386;2023-06-26T05:03:45;100810.03;;;24.64;100.00
5356;BME280;70449;52.486;13.386;2023-06-26T05:06:13;100809.44;;;24.93;100.00
5356;BME280;70449;52.486;13.386;2023-06-26T05:08:42;100803.81;;;25.62;100.00
5356;BME280;70449;52.486;13.386;2023-06-26T05:11:09;100811.69;;;25.28;100.00
5356;BME280;70449;52.486;13.386;2023-06-26T05:13:38;100818.03;;;25.14;100.00
5356;BME280;70449;52.486;13.386;2023-06-26T05:16:08;100803.50;;;25.01;100.00
5356;BME280;70449;52.486;13.386;2023-06-26T05:18:36;100807.97;;;25.13;100.00
5356;BME280;70449;52.486;13.386;2023-06-26T05:21:05;100805.53;;;25.08;100.00
5356;BME280;70449;52.486;13.386;2023-06-26T05:23:34;100798.19;;;25.48;100.00
5356;BME280;70449;52.486;13.386;2023-06-26T05:26:04;100806.63;;;25.62;100.00
5356;BME280;70449;52.486;13.386;2023-06-26T05:28:31;100798.53;;;25.43;100.00
5356;BME280;70449;52.486;13.386;2023-06-26T05:31:00;100793.94;;;25.90;100.00
5356;BME280;70449;52.486;13.386;2023-06-26T05:33:27;100789.09;;;25.94;100.00
5356;BME280;70449;52.486;13.386;2023-06-26T05:35:56;100790.91;;;25.40;100.00
5356;BME280;70449;52.486;13.386;2023-06-26T05:38:25;100784.44;;;25.28;100.00
5356;BME280;70449;52.486;13.386;2023-06-26T05:40:53;100777.59;;;25.19;100.00
5356;BME280;70449;52.486;13.386;2023-06-26T05:43:23;100784.78;;;25.16;100.00
5356;BME280;70449;52.486;13.386;2023-06-26T05:45:50;100766.31;;;25.15;100.00
5356;BME280;70449;52.486;13.386;2023-06-26T05:48:17;100779.75;;;24.88;100.00
5356;BME280;70449;52.486;13.386;2023-06-26T05:50:45;100771.94;;;25.15;100.00
5356;BME280;70449;52.486;13.386;2023-06-26T05:53:13;100779.31;;;24.82;100.00
5356;BME280;70449;52.486;13.386;2023-06-26T05:55:41;100773.94;;;24.56;100.00
5356;BME280;70449;52.486;13.386;2023-06-26T05:58:11;100775.38;;;24.91;100.00
5356;BME280;70449;52.486;13.386;2023-06-26T06:00:41;100770.47;;;25.43;100.00
5356;BME280;70449;52.486;13.386;2023-06-26T06:03:10;100768.09;;;25.45;100.00
5356;BME280;70449;52.486;13.386;2023-06-26T06:05:37;100766.09;;;25.56;100.00
5356;BME280;70449;52.486;13.386;2023-06-26T06:08:04;100761.84;;;26.01;100.00
5356;BME280;70449;52.486;13.386;2023-06-26T06:10:32;100759.47;;;26.36;100.00
5356;BME280;70449;52.486;13.386;2023-06-26T06:12:59;100755.44;;;26.22;100.00
5356;BME280;70449;52.486;13.386;2023-06-26T06:15:26;100760.28;;;26.26;100.00
5356;BME280;70449;52.486;13.386;2023-06-26T06:17:55;100754.25;;;26.45;100.00
5356;BME280;70449;52.486;13.386;2023-06-26T06:20:22;100759.47;;;26.64;100.00
5356;BME280;70449;52.486;13.386;2023-06-26T06:22:49;100751.84;;;26.40;100.00
5356;BME280;70449;52.486;13.386;2023-06-26T06:25:16;100749.84;;;26.73;100.00
5356;BME280;70449;52.486;13.386;2023-06-26T06:27:44;100748.59;;;26.88;100.00
5356;BME280;70449;52.486;13.386;2023-06-26T06:30:13;100752.22;;;26.92;100.00
5356;BME280;70449;52.486;13.386;2023-06-26T06:32:40;100760.16;;;27.26;100.00
5356;BME280;70449;52.486;13.386;2023-06-26T06:35:09;100761.81;;;27.09;100.00
5356;BME280;70449;52.486;13.386;2023-06-26T06:37:37;100751.31;;;27.38;100.00
5356;BME280;70449;52.486;13.386;2023-06-26T06:40:05;100748.97;;;27.04;100.00
5356;BME280;70449;52.486;13.386;2023-06-26T06:42:34;100738.09;;;27.24;100.00
5356;BME280;70449;52.486;13.386;2023-06-26T06:45:02;100739.19;;;27.48;100.00
5356;BME280;70449;52.486;13.386;2023-06-26T06:47:30;100746.25;;;27.78;100.00
5356;BME280;70449;52.486;13.386;2023-06-26T06:49:57;100742.75;;;27.59;100.00
5356;BME280;70449;52.486;13.386;2023-06-26T06:52:26;100744.47;;;27.32;100.00
5356;BME280;70449;52.486;13.386;2023-06-26T06:54:53;100739.50;;;27.61;100.00
5356;BME280;70449;52.486;13.386;2023-06-26T06:57:21;100739.81;;;27.77;100.00
5356;BME280;70449;52.486;13.386;2023-06-26T06:59:48;100740.88;;;27.28;100.00
5356;BME280;70449;52.486;13.386;2023-06-26T07:02:17;100741.50;;;27.64;100.00
5356;BME280;70449;52.486;13.386;2023-06-26T07:04:44;100736.41;;;28.11;100.00
5356;BME280;70449;52.486;13.386;2023-06-26T07:07:12;100732.06;;;27.19;100.00
5356;BME280;70449;52.486;13.386;2023-06-26T07:09:41;100736.63;;;27.72;100.00
5356;BME280;70449;52.486;13.386;2023-06-26T07:12:09;100736.41;;;28.08;100.00
5356;BME280;70449;52.486;13.386;2023-06-26T07:14:36;100738.13;;;27.94;100.00
5356;BME280;70449;52.486;13.386;2023-06-26T07:17:04;100725.22;;;28.90;100.00
5356;BME280;70449;52.486;13.386;2023-06-26T07:19:31;100733.06;;;28.27;100.00
5356;BME280;70449;52.486;13.386;2023-06-26T07:21:58;100728.88;;;28.50;100.00
5356;BME280;70449;52.486;13.386;2023-06-26T07:24:25;100730.25;;;28.72;100.00
5356;BME280;70449;52.486;13.386;2023-06-26T07:26:54;100734.94;;;28.86;100.00
5356;BME280;70449;52.486;13.386;2023-06-26T07:29:21;100730.19;;;28.79;100.00
5356;BME280;70449;52.486;13.386;2023-06-26T07:31:48;100729.69;;;28.46;100.00
5356;BME280;70449;52.486;13.386;2023-06-26T07:34:16;100724.00;;;28.91;100.00
5356;BME280;70449;52.486;13.386;2023-06-26T07:36:43;100729.28;;;28.86;100.00
5356;BME280;70449;52.486;13.386;2023-06-26T07:39:10;100712.50;;;29.44;100.00
5356;BME280;70449;52.486;13.386;2023-06-26T07:41:37;100708.78;;;28.40;100.00
5356;BME280;70449;52.486;13.386;2023-06-26T07:44:06;100713.66;;;28.36;100.00
5356;BME280;70449;52.486;13.386;2023-06-26T07:46:33;100714.00;;;28.83;100.00
5356;BME280;70449;52.486;13.386;2023-06-26T07:49:00;100711.56;;;28.85;100.00
5356;BME280;70449;52.486;13.386;2023-06-26T07:51:28;100709.50;;;28.52;100.00
5356;BME280;70449;52.486;13.386;2023-06-26T07:53:55;100701.09;;;28.86;100.00
5356;BME280;70449;52.486;13.386;2023-06-26T07:56:22;100707.38;;;29.01;100.00
5356;BME280;70449;52.486;13.386;2023-06-26T07:58:49;100706.22;;;28.57;100.00
5356;BME280;70449;52.486;13.386;2023-06-26T08:01:18;100698.28;;;29.20;100.00
5356;BME280;70449;52.486;13.386;2023-06-26T08:03:45;100694.25;;;29.21;97.97
5356;BME280;70449;52.486;13.386;2023-06-26T08:06:12;100702.81;;;28.76;100.00
5356;BME280;70449;52.486;13.386;2023-06-26T08:08:40;100699.94;;;28.38;95.70
5356;BME280;70449;52.486;13.386;2023-06-26T08:11:07;100691.81;;;29.23;91.60
5356;BME280;70449;52.486;13.386;2023-06-26T08:13:34;100683.13;;;29.07;92.96
5356;BME280;70449;52.486;13.386;2023-06-26T08:16:02;100679.56;;;29.33;89.76
5356;BME280;70449;52.486;13.386;2023-06-26T08:18:30;100680.22;;;29.45;87.27
5356;BME280;70449;52.486;13.386;2023-06-26T08:20:57;100680.78;;;29.63;84.35
5356;BME280;70449;52.486;13.386;2023-06-26T08:23:25;100680.69;;;30.21;82.90
5356;BME280;70449;52.486;13.386;2023-06-26T08:25:52;100681.91;;;29.69;77.75
5356;BME280;70449;52.486;13.386;2023-06-26T08:28:19;100686.97;;;29.81;79.54
5356;BME280;70449;52.486;13.386;2023-06-26T08:30:47;100688.63;;;30.30;74.58
5356;BME280;70449;52.486;13.386;2023-06-26T08:33:14;100678.91;;;29.80;76.93
5356;BME280;70449;52.486;13.386;2023-06-26T08:35:42;100678.28;;;29.96;74.24
5356;BME280;70449;52.486;13.386;2023-06-26T08:38:10;100678.06;;;29.25;76.04
5356;BME280;70449;52.486;13.386;2023-06-26T08:40:37;100674.66;;;29.95;69.99
5356;BME280;70449;52.486;13.386;2023-06-26T08:43:04;100663.75;;;29.39;73.34
5356;BME280;70449;52.486;13.386;2023-06-26T08:45:32;100677.84;;;30.44;69.18
5356;BME280;70449;52.486;13.386;2023-06-26T08:48:00;100663.41;;;30.39;68.25
5356;BME280;70449;52.486;13.386;2023-06-26T08:50:31;100666.22;;;30.39;60.72
5356;BME280;70449;52.486;13.386;2023-06-26T08:53:06;100663.22;;;30.93;59.67
5356;BME280;70449;52.486;13.386;2023-06-26T08:55:41;100666.38;;;30.32;64.96
5356;BME280;70449;52.486;13.386;2023-06-26T08:58:08;100666.19;;;30.19;68.08
5356;BME280;70449;52.486;13.386;2023-06-26T09:00:36;100660.09;;;30.44;64.80
5356;BME280;70449;52.486;13.386;2023-06-26T09:03:04;100653.56;;;30.47;64.53
5356;BME280;70449;52.486;13.386;2023-06-26T09:05:31;100656.16;;;30.38;62.56
5356;BME280;70449;52.486;13.386;2023-06-26T09:07:58;100641.09;;;30.64;65.13
5356;BME280;70449;52.486;13.386;2023-06-26T09:10:27;100639.31;;;30.54;63.13
5356;BME280;70449;52.486;13.386;2023-06-26T09:12:56;100644.25;;;31.10;62.89
5356;BME280;70449;52.486;13.386;2023-06-26T09:15:24;100641.16;;;31.21;61.77
5356;BME280;70449;52.486;13.386;2023-06-26T09:17:56;100634.41;;;31.34;63.22
5356;BME280;70449;52.486;13.386;2023-06-26T09:20:28;100629.94;;;31.17;62.49
5356;BME280;70449;52.486;13.386;2023-06-26T09:22:56;100629.41;;;31.58;60.24
5356;BME280;70449;52.486;13.386;2023-06-26T09:25:24;100635.09;;;31.91;60.22
5356;BME280;70449;52.486;13.386;2023-06-26T09:27:54;100635.16;;;31.18;61.93
5356;BME280;70449;52.486;13.386;2023-06-26T09:30:21;100627.19;;;31.13;62.26
5356;BME280;70449;52.486;13.386;2023-06-26T09:32:49;100627.75;;;31.77;60.15
5356;BME280;70449;52.486;13.386;2023-06-26T09:35:16;100626.97;;;31.93;59.15
5356;BME280;70449;52.486;13.386;2023-06-26T09:37:44;100620.72;;;31.49;59.53
5356;BME280;70449;52.486;13.386;2023-06-26T09:40:13;100616.88;;;31.03;59.84
5356;BME280;70449;52.486;13.386;2023-06-26T09:42:41;100631.66;;;31.31;57.31
5356;BME280;70449;52.486;13.386;2023-06-26T09:45:18;100615.63;;;31.93;55.01
5356;BME280;70449;52.486;13.386;2023-06-26T09:47:46;100614.19;;;32.76;53.61
5356;BME280;70449;52.486;13.386;2023-06-26T09:50:22;100604.13;;;32.00;54.66
5356;BME280;70449;52.486;13.386;2023-06-26T09:52:52;100612.50;;;31.55;57.33
5356;BME280;70449;52.486;13.386;2023-06-26T09:55:20;100610.72;;;31.08;60.34
5356;BME280;70449;52.486;13.386;2023-06-26T09:57:50;100607.03;;;31.48;56.35
5356;BME280;70449;52.486;13.386;2023-06-26T10:00:19;100610.69;;;31.28;54.90
5356;BME280;70449;52.486;13.386;2023-06-26T10:02:46;100598.63;;;31.60;56.08
5356;BME280;70449;52.486;13.386;2023-06-26T10:05:14;100602.69;;;31.59;55.68
5356;BME280;70449;52.486;13.386;2023-06-26T10:07:42;100596.16;;;31.62;55.75
5356;BME280;70449;52.486;13.386;2023-06-26T10:10:10;100590.13;;;31.77;56.73
5356;BME280;70449;52.486;13.386;2023-06-26T10:12:38;100587.94;;;31.32;55.61
5356;BME280;70449;52.486;13.386;2023-06-26T10:15:07;100595.25;;;31.66;56.91
5356;BME280;70449;52.486;13.386;2023-06-26T10:17:43;100592.22;;;31.73;55.72
5356;BME280;70449;52.486;13.386;2023-06-26T10:20:13;100586.41;;;31.63;54.07
5356;BME280;70449;52.486;13.386;2023-06-26T10:22:44;100577.81;;;31.83;54.83
5356;BME280;70449;52.486;13.386;2023-06-26T10:25:17;100582.41;;;32.39;54.44
5356;BME280;70449;52.486;13.386;2023-06-26T10:27:49;100572.94;;;31.51;56.49
5356;BME280;70449;52.486;13.386;2023-06-26T10:30:23;100576.34;;;32.54;54.09
5356;BME280;70449;52.486;13.386;2023-06-26T10:32:53;100567.69;;;32.86;53.21
5356;BME280;70449;52.486;13.386;2023-06-26T10:35:21;100564.38;;;32.75;54.86
5356;BME280;70449;52.486;13.386;2023-06-26T10:37:50;100562.66;;;32.36;53.48
5356;BME280;70449;52.486;13.386;2023-06-26T10:40:24;100563.06;;;32.50;54.02
5356;BME280;70449;52.486;13.386;2023-06-26T10:43:06;100561.28;;;32.57;53.85
5356;BME280;70449;52.486;13.386;2023-06-26T10:45:34;100566.38;;;31.71;52.86
5356;BME280;70449;52.486;13.386;2023-06-26T10:48:04;100559.84;;;31.57;53.33
5356;BME280;70449;52.486;13.386;2023-06-26T10:50:32;100560.81;;;31.67;52.85
5356;BME280;70449;52.486;13.386;2023-06-26T10:53:16;100545.03;;;32.28;51.52
5356;BME280;70449;52.486;13.386;2023-06-26T10:55:55;100542.75;;;32.23;53.14
5356;BME280;70449;52.486;13.386;2023-06-26T10:58:34;100541.91;;;32.10;51.92
5356;BME280;70449;52.486;13.386;2023-06-26T11:01:23;100539.06;;;32.68;51.86
5356;BME280;70449;52.486;13.386;2023-06-26T11:04:05;100538.91;;;33.01;51.30
5356;BME280;70449;52.486;13.386;2023-06-26T11:06:34;100541.84;;;33.35;49.52
5356;BME280;70449;52.486;13.386;2023-06-26T11:09:09;100533.31;;;33.96;49.24
5356;BME280;70449;52.486;13.386;2023-06-26T11:11:58;100528.88;;;33.34;49.96
5356;BME280;70449;52.486;13.386;2023-06-26T11:14:28;100523.41;;;33.40;48.68
5356;BME280;70449;52.486;13.386;2023-06-26T11:16:57;100523.22;;;33.09;49.08
5356;BME280;70449;52.486;13.386;2023-06-26T11:19:27;100518.78;;;33.08;50.87
5356;BME280;70449;52.486;13.386;2023-06-26T11:22:05;100520.94;;;33.04;51.01
5356;BME280;70449;52.486;13.386;2023-06-26T11:24:33;100508.44;;;33.14;48.91
5356;BME280;70449;52.486;13.386;2023-06-26T11:27:02;100508.44;;;33.14;49.98
5356;BME280;70449;52.486;13.386;2023-06-26T11:29:31;100507.91;;;33.79;47.38
5356;BME280;70449;52.486;13.386;2023-06-26T11:32:01;100505.47;;;33.30;48.63
5356;BME280;70449;52.486;13.386;2023-06-26T11:34:33;100505.63;;;33.01;48.50
5356;BME280;70449;52.486;13.386;2023-06-26T11:37:01;100497.06;;;33.39;47.74
5356;BME280;70449;52.486;13.386;2023-06-26T11:39:29;100497.16;;;33.49;48.93
5356;BME280;70449;52.486;13.386;2023-06-26T11:41:56;100494.94;;;33.05;49.05
5356;BME280;70449;52.486;13.386;2023-06-26T11:44:24;100493.19;;;33.33;47.23
5356;BME280;70449;52.486;13.386;2023-06-26T11:46:54;100481.88;;;34.03;46.08
5356;BME280;70449;52.486;13.386;2023-06-26T11:49:22;100482.28;;;33.45;46.06
5356;BME280;70449;52.486;13.386;2023-06-26T11:51:53;100473.19;;;33.50;46.63
5356;BME280;70449;52.486;13.386;2023-06-26T11:54:27;100461.09;;;33.71;45.90
5356;BME280;70449;52.486;13.386;2023-06-26T11:56:56;100464.56;;;33.88;46.54
5356;BME280;70449;52.486;13.386;2023-06-26T11:59:24;100455.84;;;34.26;46.21
5356;BME280;70449;52.486;13.386;2023-06-26T12:01:52;100453.72;;;34.18;45.15
5356;BME280;70449;52.486;13.386;2023-06-26T12:04:20;100441.47;;;33.86;45.36
5356;BME280;70449;52.486;13.386;2023-06-26T12:06:50;100437.94;;;33.60;46.29
5356;BME280;70449;52.486;13.386;2023-06-26T12:09:20;100442.22;;;34.21;45.25
5356;BME280;70449;52.486;13.386;2023-06-26T12:11:51;100438.97;;;34.10;44.77
5356;BME280;70449;52.486;13.386;2023-06-26T12:14:20;100428.72;;;33.91;44.15
5356;BME280;70449;52.486;13.386;2023-06-26T12:16:49;100430.19;;;34.17;44.36
5356;BME280;70449;52.486;13.386;2023-06-26T12:19:16;100436.53;;;34.21;46.00
5356;BME280;70449;52.486;13.386;2023-06-26T12:21:48;100425.28;;;35.39;42.21
5356;BME280;70449;52.486;13.386;2023-06-26T12:24:21;100429.56;;;34.75;41.26
5356;BME280;70449;52.486;13.386;2023-06-26T12:26:51;100416.41;;;35.18;40.99
5356;BME280;70449;52.486;13.386;2023-06-26T12:29:31;100428.13;;;35.30;40.03
5356;BME280;70449;52.486;13.386;2023-06-26T12:32:00;100411.66;;;35.15;39.67
5356;BME280;70449;52.486;13.386;2023-06-26T12:34:30;100413.47;;;34.91;40.78
5356;BME280;70449;52.486;13.386;2023-06-26T12:37:03;100411.25;;;35.81;39.42
5356;BME280;70449;52.486;13.386;2023-06-26T12:39:46;100407.31;;;35.60;39.11
5356;BME280;70449;52.486;13.386;2023-06-26T12:42:15;100405.06;;;36.10;39.64
5356;BME280;70449;52.486;13.386;2023-06-26T12:44:42;100391.34;;;36.75;37.77
5356;BME280;70449;52.486;13.386;2023-06-26T12:47:12;100393.50;;;36.05;37.91
5356;BME280;70449;52.486;13.386;2023-06-26T12:49:42;100395.09;;;36.48;36.81
5356;BME280;70449;52.486;13.386;2023-06-26T12:52:11;100386.88;;;36.41;37.62